Upton, New York
Current Conditions -  °F | °C
As of 4:56 PM on Sunday 23 Nov 2014 (Local Time) from KHWV Reporting Station
Clear Clear  
Wind Chill: 44°   Ceiling: Unl
Heat Index: 47°   Visibility: 10mi
Dew Point: 36°   Wind: 6mph
Humidity: 66%   Direction: 180°S
Pressure: 30.16"   Gusts: NA
Location:  40.87°N, 72.89°W
Report Text: KHWV 232156Z AUTO 18005KT 10SM CLR 08/02 A3016 RMK AO2 SLP213 T00830022 TSNO
Loading
Personal Weather Stations






























Interactive Weather Map New forecast layout! Learn more

10-Day Weather Forecast

Advertisements
Track Severe Weather on mobile